Paineville, Illinois
Current Conditions -  °F | °C
As of 2:55 AM on Friday 24 Oct 2014 (Local Time) from KMWA Reporting Station
Overcast Overcast  
Wind Chill: 46°   Ceiling: 7000
Heat Index: 48°   Visibility: 7mi
Dew Point: 46°   Wind: 5mph
Humidity: 93%   Direction: 190°S
Pressure: 30.11"   Gusts: NA
Location:  37.8118°N, 89.0053°W
Report Text: KMWA 240755Z AUTO 19004KT 7SM OVC070 09/08 A3011 RMK AO2
Loading
Personal Weather Stations






























Interactive Weather Map
Tropical Storm Tracking
New forecast layout! Learn more

10-Day Weather Forecast

Advertisements
Track Severe Weather on mobile